Time;durP1;ratioP1;P1;durP2;ratioP2;P2;SDS_P1;SDS_P2;PMS_P1;PMS_P2;Temp;Humidity;BMP_temperature;BMP_pressure;BME280_temperature;BME280_humidity;BME280_pressure;Samples;Min_cycle;Max_cycle;Signal;HPM_P1;HPM_P2
2023/05/13 00:01:38;;;;;;;4.43;3.00;;;13.00;86.70;;;16.00;52.80;97599.56;4971871;28;20043;-44
2023/05/13 00:04:06;;;;;;;4.90;3.67;;;13.00;86.60;;;15.96;53.03;97605.53;4971647;28;20055;-44
2023/05/13 00:06:34;;;;;;;4.57;3.13;;;12.90;86.80;;;15.90;52.94;97594.56;4971564;28;20082;-44
2023/05/13 00:09:03;;;;;;;4.63;3.20;;;13.00;86.70;;;15.89;53.02;97597.44;4962452;28;20058;-44
2023/05/13 00:11:30;;;;;;;4.15;3.22;;;12.90;86.80;;;15.85;52.97;97593.47;4971956;28;20069;-44
2023/05/13 00:13:58;;;;;;;4.28;3.13;;;12.90;86.80;;;15.84;52.98;97599.84;4954522;28;20057;-44
2023/05/13 00:16:27;;;;;;;4.45;3.72;;;12.90;86.70;;;15.79;53.03;97599.63;4971488;28;20043;-46
2023/05/13 00:18:55;;;;;;;3.80;3.28;;;12.80;86.60;;;15.75;52.96;97586.59;4972651;28;20053;-45
2023/05/13 00:21:23;;;;;;;3.20;2.90;;;12.80;86.70;;;15.72;52.92;97584.28;4974835;28;20054;-44
2023/05/13 00:23:50;;;;;;;4.97;3.08;;;12.80;86.70;;;15.69;53.02;97583.84;4975054;28;20058;-44
2023/05/13 00:26:18;;;;;;;4.07;3.13;;;12.70;86.80;;;15.66;52.80;97593.09;4957638;28;20038;-44
2023/05/13 00:28:48;;;;;;;4.50;3.08;;;12.70;86.90;;;15.62;53.05;97596.38;4973313;28;20051;-44
2023/05/13 00:31:17;;;;;;;4.25;3.45;;;12.60;87.10;;;15.55;53.14;97593.66;4957203;28;20058;-44
2023/05/13 00:33:44;;;;;;;4.32;3.55;;;12.50;87.60;;;15.50;53.15;97596.91;4974957;28;20418;-45
2023/05/13 00:36:12;;;;;;;4.60;4.00;;;12.50;87.90;;;15.44;53.21;97595.00;4974434;28;20057;-44
2023/05/13 00:38:40;;;;;;;4.85;3.35;;;12.40;87.90;;;15.44;53.41;97594.16;4956672;28;20066;-44
2023/05/13 00:41:07;;;;;;;8.18;5.65;;;12.40;88.10;;;15.41;53.38;97594.53;4957096;28;20043;-46
2023/05/13 00:43:35;;;;;;;8.30;4.75;;;12.40;88.10;;;15.38;53.30;97597.63;4957029;28;20510;-46
2023/05/13 00:46:03;;;;;;;5.15;3.60;;;12.40;88.30;;;15.34;53.35;97592.63;4972858;28;20054;-46
2023/05/13 00:48:32;;;;;;;4.95;3.67;;;12.40;88.50;;;15.31;53.40;97598.38;4973096;28;20049;-44
2023/05/13 00:50:59;;;;;;;5.03;3.28;;;12.40;88.40;;;15.28;53.42;97604.13;4956791;28;20499;-45
2023/05/13 00:53:27;;;;;;;4.05;3.05;;;12.30;88.50;;;15.25;53.36;97604.50;4957020;28;20062;-45
2023/05/13 00:55:55;;;;;;;4.80;3.58;;;12.20;88.80;;;15.21;53.56;97603.25;4957047;28;20061;-45
2023/05/13 00:58:22;;;;;;;5.18;3.50;;;12.10;89.80;;;15.18;53.68;97598.28;4956755;28;20081;-44
2023/05/13 01:01:27;;;;;;;4.75;3.55;;;12.00;90.30;;;15.16;53.77;97601.16;4973084;28;20047;-45
2023/05/13 01:04:41;;;;;;;5.22;3.80;;;12.00;90.90;;;15.17;53.79;97601.97;4952633;28;20507;-45
2023/05/13 01:07:40;;;;;;;5.47;3.85;;;12.10;91.90;;;15.22;53.72;97604.91;4949746;28;20056;-45
2023/05/13 01:10:55;;;;;;;4.88;3.88;;;12.20;91.80;;;15.22;53.75;97604.91;4974120;28;20062;-46
2023/05/13 01:13:29;;;;;;;4.35;3.95;;;12.20;92.10;;;15.23;53.71;97595.84;4973267;28;20054;-46
2023/05/13 01:16:08;;;;;;;5.18;3.95;;;12.20;92.30;;;15.19;53.67;97605.28;4964474;28;20050;-44
2023/05/13 01:18:44;;;;;;;5.63;4.07;;;12.10;92.30;;;15.12;53.73;97601.69;4949154;28;20054;-46
2023/05/13 01:21:12;;;;;;;5.28;3.75;;;12.10;92.20;;;15.06;53.82;97603.31;4971931;28;20047;-48
2023/05/13 01:23:40;;;;;;;6.05;4.00;;;12.00;92.20;;;15.02;53.86;97602.00;4956705;28;20411;-45
2023/05/13 01:26:09;;;;;;;7.95;3.60;;;12.00;92.40;;;14.95;53.91;97603.81;4956189;28;20054;-45
2023/05/13 01:28:36;;;;;;;6.77;4.07;;;11.90;92.60;;;14.91;53.85;97597.19;4972225;28;20043;-45
2023/05/13 01:31:05;;;;;;;4.75;3.78;;;11.80;92.60;;;14.87;54.03;97604.75;4971082;28;20042;-44
2023/05/13 01:33:33;;;;;;;6.57;4.65;;;11.80;92.60;;;14.82;54.05;97607.16;4956727;28;20242;-45
2023/05/13 01:36:01;;;;;;;6.15;4.55;;;11.80;92.70;;;14.81;54.01;97610.88;4956039;28;20049;-45
2023/05/13 01:38:32;;;;;;;4.82;3.95;;;11.80;92.40;;;14.82;54.04;97603.66;4956399;28;20047;-44
2023/05/13 01:41:00;;;;;;;5.68;3.60;;;11.90;92.30;;;14.77;53.91;97607.75;4956072;28;20677;-44
2023/05/13 01:43:30;;;;;;;4.90;4.10;;;11.80;92.70;;;14.76;54.24;97606.06;4956353;28;20423;-44
2023/05/13 01:45:59;;;;;;;5.57;3.67;;;11.80;93.10;;;14.74;54.17;97610.78;4955866;28;20106;-45
2023/05/13 01:48:27;;;;;;;5.35;3.97;;;11.80;93.10;;;14.71;54.28;97613.88;4963586;28;20051;-45
2023/05/13 01:50:55;;;;;;;4.38;3.20;;;11.70;92.90;;;14.67;54.00;97604.50;4972304;28;20099;-45
2023/05/13 01:53:23;;;;;;;5.35;3.58;;;11.60;92.90;;;14.64;54.21;97599.56;4970979;28;20553;-44
2023/05/13 01:55:52;;;;;;;4.35;3.63;;;11.60;93.50;;;14.59;54.27;97596.59;4955865;28;20061;-46
2023/05/13 01:58:21;;;;;;;4.50;3.30;;;11.60;93.40;;;14.54;54.07;97604.34;4963613;28;20533;-44
2023/05/13 02:00:48;;;;;;;5.93;3.60;;;11.60;93.40;;;14.52;54.22;97606.34;4955969;28;20054;-45
2023/05/13 02:03:18;;;;;;;6.18;4.20;;;11.60;93.70;;;14.48;54.39;97610.44;4955426;28;20042;-44
2023/05/13 02:05:47;;;;;;;17.57;6.57;;;11.50;93.70;;;14.41;54.06;97609.53;4955514;28;20039;-45
2023/05/13 02:08:15;;;;;;;4.47;3.87;;;11.40;93.70;;;14.36;54.12;97605.56;4955045;28;20441;-45
2023/05/13 02:10:42;;;;;;;6.18;3.90;;;11.30;94.10;;;14.32;54.17;97612.28;4971810;28;20039;-44
2023/05/13 02:13:10;;;;;;;4.67;3.70;;;11.30;94.10;;;14.30;54.27;97608.16;4971474;28;20050;-46
2023/05/13 02:15:39;;;;;;;4.00;3.20;;;11.20;94.00;;;14.28;54.42;97611.00;4955535;28;20057;-44
2023/05/13 02:18:07;;;;;;;5.40;4.00;;;11.20;94.50;;;14.29;54.23;97617.22;4955234;28;20072;-45
2023/05/13 02:20:35;;;;;;;4.30;3.70;;;11.20;94.50;;;14.25;54.12;97615.91;4963451;28;20046;-44
2023/05/13 02:23:02;;;;;;;4.18;3.63;;;11.20;94.50;;;14.21;54.19;97615.47;4955295;28;20047;-47
2023/05/13 02:25:30;;;;;;;4.73;3.40;;;11.10;94.70;;;14.15;54.26;97609.00;4962787;28;20055;-46
2023/05/13 02:27:59;;;;;;;5.93;3.83;;;11.10;94.80;;;14.09;54.45;97616.91;4971696;28;20054;-45
2023/05/13 02:30:26;;;;;;;4.13;3.37;;;11.00;95.10;;;14.06;54.52;97617.31;4972686;28;20051;-46
2023/05/13 02:32:55;;;;;;;6.13;3.87;;;10.90;95.60;;;14.03;54.47;97623.00;4972751;28;20058;-47
2023/05/13 02:35:24;;;;;;;4.23;3.83;;;11.00;95.90;;;14.02;54.47;97621.38;4954981;28;20050;-46
2023/05/13 02:37:52;;;;;;;6.13;4.73;;;11.00;95.80;;;13.99;54.58;97620.69;4970470;28;20050;-45
2023/05/13 02:40:20;;;;;;;6.50;4.40;;;11.00;95.60;;;13.97;54.51;97614.69;4971126;28;20042;-45
2023/05/13 02:42:49;;;;;;;5.13;3.43;;;11.00;95.80;;;13.94;54.47;97612.41;4954219;28;20053;-47
2023/05/13 02:45:23;;;;;;;5.50;4.05;;;10.90;95.90;;;13.92;54.69;97611.75;4970680;28;20091;-45
2023/05/13 02:47:53;;;;;;;5.17;4.20;;;10.90;96.00;;;13.89;54.58;97612.09;4971106;28;20047;-48
2023/05/13 02:50:21;;;;;;;4.65;3.75;;;10.90;96.10;;;13.85;54.60;97615.34;4955439;28;20042;-47
2023/05/13 02:52:49;;;;;;;5.77;4.10;;;10.80;96.20;;;13.83;54.54;97617.38;4952904;28;20047;-45
2023/05/13 02:55:17;;;;;;;4.60;3.77;;;10.80;96.00;;;13.77;54.72;97611.72;4955385;28;20046;-47
2023/05/13 02:57:44;;;;;;;5.40;3.93;;;10.70;96.10;;;13.75;54.65;97613.75;4971426;28;20069;-45
2023/05/13 03:00:13;;;;;;;5.63;4.00;;;10.70;96.70;;;13.73;54.52;97613.09;4971188;28;20054;-45
2023/05/13 03:02:41;;;;;;;4.60;3.60;;;10.70;96.50;;;13.73;54.69;97609.59;4948046;28;20050;-47
2023/05/13 03:05:08;;;;;;;5.73;4.13;;;10.70;96.40;;;13.72;54.55;97611.44;4973404;28;20042;-46
2023/05/13 03:07:36;;;;;;;6.80;3.67;;;10.70;96.30;;;13.72;54.65;97614.09;4964024;28;20057;-45
2023/05/13 03:10:05;;;;;;;5.43;3.97;;;10.70;96.30;;;13.71;54.53;97617.00;4955476;28;20046;-47
2023/05/13 03:12:33;;;;;;;7.30;4.97;;;10.70;97.10;;;13.70;54.61;97618.81;4955961;28;20055;-47
2023/05/13 03:15:00;;;;;;;7.27;5.00;;;10.70;96.00;;;13.67;54.49;97618.38;4973349;28;20046;-46
2023/05/13 03:17:30;;;;;;;4.87;3.73;;;10.70;96.00;;;13.66;54.54;97622.03;4973310;28;20511;-46
2023/05/13 03:19:58;;;;;;;4.73;3.83;;;10.70;96.20;;;13.62;54.47;97612.72;4955028;28;20503;-47
2023/05/13 03:22:26;;;;;;;4.77;3.80;;;10.60;95.70;;;13.60;54.41;97612.91;4955119;28;20404;-50
2023/05/13 03:24:53;;;;;;;4.87;3.70;;;10.60;96.10;;;13.55;54.56;97620.63;4955672;28;20422;-49
2023/05/13 03:27:25;;;;;;;5.60;3.80;;;10.50;95.50;;;13.50;54.58;97618.50;4971792;28;20569;-46
2023/05/13 03:29:52;;;;;;;5.07;4.13;;;10.40;96.00;;;13.50;54.63;97613.16;4956151;28;20047;-47
2023/05/13 03:32:21;;;;;;;4.97;4.10;;;10.40;96.50;;;13.48;54.65;97623.19;4971126;28;20502;-48
2023/05/13 03:34:50;;;;;;;5.37;4.13;;;10.50;96.70;;;13.48;54.78;97617.84;4963042;28;20054;-45
2023/05/13 03:37:18;;;;;;;6.97;4.37;;;10.50;96.40;;;13.48;54.46;97625.03;4955132;28;20058;-44
2023/05/13 03:39:45;;;;;;;4.70;4.03;;;10.50;96.50;;;13.46;54.73;97624.41;4953899;28;20054;-45
2023/05/13 03:42:13;;;;;;;5.10;3.70;;;10.40;96.50;;;13.41;54.71;97619.56;4970227;28;20046;-49
2023/05/13 03:44:40;;;;;;;6.40;3.97;;;10.30;97.10;;;13.38;54.67;97625.28;4967578;28;20547;-47
2023/05/13 03:47:10;;;;;;;6.30;5.70;;;10.30;97.70;;;13.39;54.88;97629.63;4950752;28;20054;-46
2023/05/13 03:49:38;;;;;;;6.00;5.40;;;10.40;97.80;;;13.43;55.13;97627.41;4961868;28;20043;-44
2023/05/13 03:52:06;;;;;;;5.87;4.53;;;10.40;97.60;;;13.44;54.87;97632.59;4954668;28;20448;-45
2023/05/13 03:54:34;;;;;;;5.23;4.73;;;10.40;98.10;;;13.46;55.04;97633.25;4963788;28;20521;-48
2023/05/13 03:57:02;;;;;;;5.27;4.57;;;10.40;98.30;;;13.50;55.07;97634.53;4958204;28;20054;-47
2023/05/13 03:59:29;;;;;;;5.20;4.10;;;10.40;98.10;;;13.53;55.09;97639.53;4974261;28;20066;-46
2023/05/13 04:01:57;;;;;;;6.47;5.10;;;10.40;98.60;;;13.55;54.85;97640.19;4957837;28;20418;-47
2023/05/13 04:04:25;;;;;;;5.47;4.30;;;10.40;98.40;;;13.59;54.96;97654.88;4957695;28;20047;-47
2023/05/13 04:06:52;;;;;;;7.57;4.70;;;10.40;98.50;;;13.62;55.05;97645.63;4975445;28;20034;-45
2023/05/13 04:09:20;;;;;;;7.30;4.47;;;10.40;99.00;;;13.62;55.21;97648.31;4975193;28;20047;-46
2023/05/13 04:11:47;;;;;;;6.73;3.97;;;10.50;99.60;;;13.65;54.90;97639.09;4949987;28;20042;-46
2023/05/13 04:14:17;;;;;;;6.07;4.17;;;10.50;99.80;;;13.68;55.07;97642.25;4957779;28;20046;-48
2023/05/13 04:16:44;;;;;;;7.33;4.50;;;10.50;99.90;;;13.72;54.95;97645.38;4950279;28;20057;-46
2023/05/13 04:19:12;;;;;;;6.37;4.83;;;10.60;99.80;;;13.73;55.14;97641.72;4974953;28;20418;-46
2023/05/13 04:21:39;;;;;;;5.23;4.53;;;10.60;99.70;;;13.78;55.05;97644.66;4956910;28;20050;-48
2023/05/13 04:24:07;;;;;;;5.03;3.80;;;10.70;99.90;;;13.83;54.98;97647.63;4957413;28;20043;-48
2023/05/13 04:26:37;;;;;;;4.50;3.80;;;10.70;99.70;;;13.87;54.96;97650.78;4949503;28;20061;-46
2023/05/13 04:29:05;;;;;;;9.93;4.80;;;10.80;99.10;;;13.88;54.64;97649.75;4957156;28;20474;-45
2023/05/13 04:31:32;;;;;;;4.43;3.73;;;10.70;98.60;;;13.90;54.89;97653.94;4974230;28;20049;-45
2023/05/13 04:34:00;;;;;;;4.37;3.97;;;10.70;99.50;;;13.93;54.89;97650.03;4957175;28;20046;-48
2023/05/13 04:36:28;;;;;;;5.23;4.03;;;10.80;99.50;;;13.98;55.00;97653.00;4974434;28;20054;-47
2023/05/13 04:38:56;;;;;;;4.45;3.80;;;10.90;99.10;;;14.04;54.95;97663.00;4974561;28;20042;-46
2023/05/13 04:41:24;;;;;;;5.75;4.07;;;11.00;98.60;;;14.08;54.73;97666.13;4949480;28;20059;-46
2023/05/13 04:43:51;;;;;;;4.70;3.72;;;11.00;97.80;;;14.12;54.78;97657.53;4975461;28;20426;-45
2023/05/13 04:46:19;;;;;;;6.63;4.73;;;11.10;98.00;;;14.16;54.44;97661.50;4972932;28;20050;-44
2023/05/13 04:48:49;;;;;;;4.87;3.77;;;11.10;97.60;;;14.21;54.43;97669.00;4972425;28;20494;-46
2023/05/13 04:51:18;;;;;;;6.00;4.90;;;11.10;97.10;;;14.22;54.46;97661.81;4957343;28;20046;-46
2023/05/13 04:53:46;;;;;;;5.27;4.17;;;11.20;97.00;;;14.23;54.41;97661.63;4956426;28;20042;-46
2023/05/13 04:56:15;;;;;;;4.50;4.00;;;11.10;97.20;;;14.24;54.33;97660.59;4972870;28;20280;-47
2023/05/13 04:58:43;;;;;;;6.03;4.07;;;11.20;96.70;;;14.22;54.51;97659.94;4972508;28;20510;-44
2023/05/13 05:01:12;;;;;;;5.78;3.97;;;11.30;96.60;;;14.24;54.49;97665.94;4957041;28;20057;-45
2023/05/13 05:03:40;;;;;;;5.30;4.07;;;11.30;95.80;;;14.21;54.25;97663.66;4956584;28;20061;-44
2023/05/13 05:06:08;;;;;;;5.32;3.97;;;11.20;95.60;;;14.23;54.45;97671.47;4972404;28;20047;-47
2023/05/13 05:08:36;;;;;;;5.78;4.22;;;11.30;95.90;;;14.25;54.39;97672.13;4964553;28;20055;-48
2023/05/13 05:11:04;;;;;;;6.07;4.77;;;11.40;95.40;;;14.23;54.47;97682.19;4957050;28;20047;-47
2023/05/13 05:13:34;;;;;;;5.10;4.15;;;11.40;94.80;;;14.28;54.56;97682.47;4972809;28;20077;-48
2023/05/13 05:16:02;;;;;;;4.57;3.70;;;11.40;95.30;;;14.31;54.50;97687.47;4956552;28;20525;-45
2023/05/13 05:18:30;;;;;;;7.50;4.60;;;11.40;95.10;;;14.31;54.44;97680.28;4974216;28;20045;-47
2023/05/13 05:20:58;;;;;;;5.32;3.88;;;11.40;94.60;;;14.34;54.20;97689.78;4972829;28;20538;-47
2023/05/13 05:23:28;;;;;;;7.17;4.20;;;11.40;95.00;;;14.34;54.18;97690.59;4972310;28;20058;-49
2023/05/13 05:25:58;;;;;;;4.70;4.00;;;11.40;94.70;;;14.34;54.08;97690.59;4956758;28;20047;-47
2023/05/13 05:28:38;;;;;;;5.37;3.83;;;11.30;95.40;;;14.37;54.20;97687.56;4955616;28;20395;-46
2023/05/13 05:31:07;;;;;;;8.10;4.13;;;11.30;95.70;;;14.40;54.11;97693.56;4956288;28;20051;-50
2023/05/13 05:33:35;;;;;;;5.65;4.18;;;11.30;95.50;;;14.38;54.12;97699.09;4971967;28;20121;-49
2023/05/13 05:36:03;;;;;;;5.33;3.60;;;11.20;95.20;;;14.35;53.81;97710.19;4963694;28;20046;-48
2023/05/13 05:38:31;;;;;;;5.90;4.20;;;11.20;95.50;;;14.33;54.06;97705.03;4955732;28;20054;-46
2023/05/13 05:41:00;;;;;;;7.67;4.40;;;11.10;96.80;;;14.37;54.04;97703.63;4963687;28;20054;-45
2023/05/13 05:43:28;;;;;;;5.30;3.70;;;11.20;96.70;;;14.31;54.28;97707.06;4956560;28;20042;-48
2023/05/13 05:45:56;;;;;;;5.60;4.03;;;11.10;97.10;;;14.26;54.43;97706.75;4971922;28;20054;-48
2023/05/13 05:48:25;;;;;;;5.28;4.28;;;11.00;97.10;;;14.17;54.53;97706.03;4955759;28;20073;-48
2023/05/13 05:50:54;;;;;;;6.35;4.07;;;11.00;98.30;;;14.14;54.66;97705.56;4963660;28;20046;-45
2023/05/13 05:53:28;;;;;;;5.00;4.50;;;10.90;99.10;;;14.14;54.75;97708.22;4951450;28;20418;-45
2023/05/13 05:55:56;;;;;;;4.43;4.03;;;10.90;99.20;;;14.15;54.52;97702.69;4971680;28;20422;-46
2023/05/13 05:58:25;;;;;;;5.37;4.23;;;11.00;98.80;;;14.20;54.74;97712.03;4955813;28;20058;-47
2023/05/13 06:00:53;;;;;;;4.73;3.60;;;11.10;99.20;;;14.28;54.76;97711.94;4957037;28;20391;-46
2023/05/13 06:03:21;;;;;;;4.53;4.00;;;11.20;98.20;;;14.36;54.50;97711.84;4963281;28;20442;-46
2023/05/13 06:05:49;;;;;;;5.50;4.40;;;11.30;97.50;;;14.41;54.45;97714.00;4960533;28;20062;-49
2023/05/13 06:08:18;;;;;;;6.10;4.03;;;11.40;97.50;;;14.45;54.71;97712.59;4951538;28;20430;-46
2023/05/13 06:10:46;;;;;;;7.00;4.20;;;11.40;97.70;;;14.48;54.70;97715.75;4973019;28;20038;-48
2023/05/13 06:13:14;;;;;;;5.07;3.90;;;11.50;96.90;;;14.49;54.31;97721.94;4963178;28;20057;-45
2023/05/13 06:15:41;;;;;;;5.93;3.90;;;11.50;96.60;;;14.43;54.35;97720.81;4955130;28;20051;-47
2023/05/13 06:18:11;;;;;;;6.60;3.75;;;11.40;96.60;;;14.46;54.32;97714.25;4962983;28;20046;-45
2023/05/13 06:20:38;;;;;;;6.00;4.53;;;11.40;96.60;;;14.52;54.48;97717.03;4963032;28;20046;-47
2023/05/13 06:23:08;;;;;;;4.53;3.97;;;11.50;97.30;;;14.55;54.13;97713.97;4970642;28;20050;-48
2023/05/13 06:25:36;;;;;;;6.67;3.77;;;11.50;96.80;;;14.64;54.45;97717.44;4971308;28;20043;-47
2023/05/13 06:28:07;;;;;;;5.77;3.70;;;11.60;96.50;;;14.76;54.23;97717.81;4962590;28;20054;-45
2023/05/13 06:30:35;;;;;;;6.57;4.65;;;11.80;95.70;;;14.85;54.05;97719.38;4972635;28;20049;-46
2023/05/13 06:33:03;;;;;;;6.55;4.78;;;11.90;94.60;;;14.89;53.82;97706.44;4955203;28;20058;-45
2023/05/13 06:35:30;;;;;;;5.25;4.00;;;12.10;93.40;;;14.95;54.01;97719.91;4972358;28;20054;-45
2023/05/13 06:38:00;;;;;;;5.28;3.60;;;12.20;93.10;;;15.04;53.97;97709.88;4955324;28;20051;-47
2023/05/13 06:40:28;;;;;;;7.63;3.60;;;12.30;92.70;;;15.14;53.54;97723.00;4972050;28;20558;-45
2023/05/13 06:42:56;;;;;;;6.47;3.63;;;12.30;92.40;;;15.24;53.48;97725.41;4955096;28;20042;-46
2023/05/13 06:45:36;;;;;;;4.53;3.67;;;12.40;91.70;;;15.32;53.03;97725.28;4962255;28;20074;-47
2023/05/13 06:48:05;;;;;;;5.00;3.83;;;12.50;90.70;;;15.35;52.98;97724.91;4970691;28;20533;-44
2023/05/13 06:50:32;;;;;;;3.85;3.28;;;12.50;89.30;;;15.40;52.89;97721.66;4963044;28;20054;-44
2023/05/13 06:53:00;;;;;;;6.68;4.82;;;12.50;88.90;;;15.45;52.61;97727.25;4972155;28;20035;-44
2023/05/13 06:55:27;;;;;;;11.82;7.57;;;12.60;88.30;;;15.45;52.20;97721.91;4972159;28;20038;-46
2023/05/13 06:57:55;;;;;;;9.63;6.07;;;12.50;88.40;;;15.45;52.35;97728.13;4971821;28;20047;-44
2023/05/13 07:00:23;;;;;;;4.30;3.30;;;12.50;88.80;;;15.53;52.33;97724.47;4972116;28;20039;-45
2023/05/13 07:02:51;;;;;;;6.30;3.75;;;12.60;88.30;;;15.52;52.05;97726.31;4971256;28;20050;-46
2023/05/13 07:05:18;;;;;;;5.18;3.78;;;12.70;87.60;;;15.60;52.16;97736.09;4971821;28;20042;-45
2023/05/13 07:07:46;;;;;;;6.30;3.75;;;12.80;87.50;;;15.66;51.97;97721.91;4971628;28;20074;-45
2023/05/13 07:10:14;;;;;;;3.30;2.88;;;12.90;86.60;;;15.71;52.00;97719.50;4971928;28;20042;-46
2023/05/13 07:12:41;;;;;;;5.13;3.60;;;12.90;86.30;;;15.85;51.83;97730.38;4971938;28;20526;-46
2023/05/13 07:15:09;;;;;;;5.22;3.90;;;13.00;86.10;;;15.92;51.89;97734.78;4970877;28;20057;-46
2023/05/13 07:17:37;;;;;;;5.18;4.18;;;13.20;86.30;;;15.97;51.46;97734.19;4971631;28;20050;-45
2023/05/13 07:20:06;;;;;;;5.68;3.60;;;13.20;85.20;;;15.95;51.34;97741.63;4971714;28;20046;-46
2023/05/13 07:22:34;;;;;;;4.13;3.45;;;13.20;84.70;;;15.98;51.53;97733.19;4970540;28;20058;-44
2023/05/13 07:25:01;;;;;;;7.55;3.50;;;13.30;84.50;;;15.99;51.42;97736.69;4971882;28;20569;-44
2023/05/13 07:27:29;;;;;;;4.82;3.97;;;13.20;84.60;;;16.01;50.97;97740.84;4972149;28;20522;-46
2023/05/13 07:29:57;;;;;;;5.38;4.25;;;13.20;83.30;;;16.03;51.04;97735.28;4975538;28;20141;-47
2023/05/13 07:32:24;;;;;;;3.97;3.30;;;13.20;84.10;;;16.03;51.15;97735.28;4976276;28;20047;-45
2023/05/13 07:34:52;;;;;;;4.50;3.60;;;13.20;83.80;;;16.04;51.11;97745.84;4975532;28;20053;-45
2023/05/13 07:37:19;;;;;;;6.80;3.95;;;13.30;83.80;;;16.05;51.32;97739.47;4975771;28;20042;-44
2023/05/13 07:39:47;;;;;;;5.85;3.88;;;13.30;83.00;;;16.11;50.95;97732.44;4975235;28;20170;-44
2023/05/13 07:42:15;;;;;;;5.13;3.75;;;13.30;82.40;;;16.11;50.81;97733.31;4975908;28;20050;-46
2023/05/13 07:44:43;;;;;;;5.60;3.85;;;13.30;83.00;;;16.16;50.59;97732.72;4975133;28;20047;-44
2023/05/13 07:47:11;;;;;;;6.97;4.20;;;13.30;83.20;;;16.13;50.79;97746.53;4975628;28;20042;-45
2023/05/13 07:49:40;;;;;;;4.65;3.83;;;13.30;82.70;;;16.13;50.73;97742.00;4975223;28;20419;-45
2023/05/13 07:52:07;;;;;;;4.60;3.60;;;13.30;82.90;;;16.14;50.48;97738.28;4975393;28;20093;-45
2023/05/13 07:54:35;;;;;;;4.53;3.75;;;13.30;82.50;;;16.18;50.34;97741.41;4975393;28;20066;-44
2023/05/13 07:57:03;;;;;;;4.32;3.55;;;13.30;82.00;;;16.22;50.62;97741.84;4974409;28;20043;-44
2023/05/13 07:59:30;;;;;;;5.55;3.50;;;13.40;82.20;;;16.28;50.74;97744.56;4974429;28;20414;-45
2023/05/13 08:01:58;;;;;;;5.00;3.75;;;13.40;82.50;;;16.32;50.24;97739.63;4975442;28;20043;-46
2023/05/13 08:04:25;;;;;;;8.10;5.05;;;13.40;81.80;;;16.30;50.25;97734.50;4973547;28;20054;-46
2023/05/13 08:06:53;;;;;;;7.18;4.10;;;13.40;82.30;;;16.33;50.29;97744.00;4975038;28;20043;-44
2023/05/13 08:09:21;;;;;;;5.22;4.57;;;13.40;82.20;;;16.30;50.09;97742.53;4974900;28;20042;-44
2023/05/13 08:11:49;;;;;;;3.65;3.35;;;13.30;81.90;;;16.26;50.24;97741.25;4974020;28;20047;-45
2023/05/13 08:14:16;;;;;;;5.35;3.60;;;13.20;82.50;;;16.25;50.40;97741.47;4974990;28;20406;-44
2023/05/13 08:16:44;;;;;;;4.95;4.40;;;13.20;82.70;;;16.27;50.38;97747.47;4957923;28;20046;-47
2023/05/13 08:19:14;;;;;;;4.47;3.95;;;13.30;81.90;;;16.24;50.13;97746.00;4975309;28;20051;-44
2023/05/13 08:21:43;;;;;;;5.00;4.13;;;13.30;81.20;;;16.25;50.06;97744.16;4973784;28;20054;-46
2023/05/13 08:24:11;;;;;;;4.85;3.70;;;13.30;81.90;;;16.29;50.26;97740.88;4975101;28;20046;-46
2023/05/13 08:26:38;;;;;;;5.60;4.07;;;13.30;82.10;;;16.30;50.23;97739.88;4973334;28;20047;-44
2023/05/13 08:29:06;;;;;;;5.18;3.88;;;13.40;81.70;;;16.34;50.30;97751.03;4973532;28;20387;-47
2023/05/13 08:31:33;;;;;;;5.97;3.65;;;13.50;81.70;;;16.37;50.11;97756.00;4975273;28;20199;-44
2023/05/13 08:34:01;;;;;;;4.18;3.35;;;13.60;81.50;;;16.39;50.38;97753.97;4974671;28;20050;-45
2023/05/13 08:36:29;;;;;;;5.57;4.05;;;13.60;81.30;;;16.42;50.20;97745.53;4974768;28;20055;-44
2023/05/13 08:38:57;;;;;;;6.28;3.92;;;13.60;81.00;;;16.45;50.20;97755.03;4974515;28;20042;-44
2023/05/13 08:41:25;;;;;;;6.10;3.30;;;13.60;81.00;;;16.43;50.08;97754.41;4974547;28;20051;-44
2023/05/13 08:43:56;;;;;;;5.55;3.67;;;13.70;80.30;;;16.41;50.00;97753.78;4974400;28;20058;-43
2023/05/13 08:46:27;;;;;;;5.10;4.10;;;13.70;80.30;;;16.46;50.18;97751.31;4973372;28;20491;-43
2023/05/13 08:48:55;;;;;;;6.32;4.10;;;13.70;80.30;;;16.52;50.17;97748.69;4974109;28;20407;-43
2023/05/13 08:51:23;;;;;;;5.28;4.38;;;13.70;80.80;;;16.59;49.82;97751.41;4973370;28;20050;-43
2023/05/13 08:53:52;;;;;;;5.65;4.05;;;13.70;80.80;;;16.61;49.99;97756.59;4969038;28;20502;-43
2023/05/13 08:56:21;;;;;;;5.47;4.10;;;13.80;80.30;;;16.63;50.04;97755.34;4972909;28;20054;-43
2023/05/13 08:58:48;;;;;;;5.32;3.85;;;13.80;80.50;;;16.67;49.87;97750.41;4974022;28;20050;-43
2023/05/13 09:01:16;;;;;;;4.38;3.42;;;13.80;80.40;;;16.69;49.73;97753.72;4974518;28;20050;-43
2023/05/13 09:04:01;;;;;;;5.88;3.80;;;13.70;80.00;;;16.72;49.81;97756.03;4974388;28;20057;-45
2023/05/13 09:06:28;;;;;;;7.22;3.72;;;13.70;80.30;;;16.77;49.82;97758.97;4974165;28;20410;-45
2023/05/13 09:08:56;;;;;;;5.68;3.88;;;13.80;80.80;;;16.79;49.73;97756.91;4973958;28;20065;-44
2023/05/13 09:11:25;;;;;;;4.75;3.60;;;13.80;80.50;;;16.84;49.55;97759.84;4974134;28;20058;-45
2023/05/13 09:13:57;;;;;;;5.47;3.35;;;13.80;79.80;;;16.89;49.43;97759.28;4974058;28;20046;-48
2023/05/13 09:16:28;;;;;;;3.97;3.47;;;13.90;79.70;;;16.93;49.34;97761.38;4974009;28;20047;-45
2023/05/13 09:19:02;;;;;;;6.40;3.83;;;14.00;79.80;;;16.96;49.24;97762.00;4973484;28;20047;-46
2023/05/13 09:21:34;;;;;;;4.68;3.38;;;14.00;78.90;;;17.00;49.21;97763.25;4973926;28;20066;-48
2023/05/13 09:24:06;;;;;;;5.18;3.97;;;14.10;79.30;;;17.01;49.11;97764.91;4965902;28;20051;-47
2023/05/13 09:26:36;;;;;;;5.70;4.00;;;14.00;78.80;;;17.00;49.12;97765.94;4973556;28;20047;-44
2023/05/13 09:29:25;;;;;;;5.13;3.80;;;14.00;79.20;;;17.02;49.21;97771.94;4972355;28;20418;-49
2023/05/13 09:32:00;;;;;;;6.60;3.70;;;14.10;78.00;;;17.07;48.93;97775.69;4973556;28;20059;-45
2023/05/13 09:34:33;;;;;;;4.50;3.60;;;14.00;78.50;;;17.02;48.64;97769.25;4973694;28;20039;-46
2023/05/13 09:37:06;;;;;;;5.82;3.70;;;14.00;78.10;;;16.97;49.10;97769.03;4965674;28;20386;-49
2023/05/13 09:39:40;;;;;;;5.72;4.05;;;14.10;78.00;;;16.91;48.89;97765.28;4973221;28;20058;-48
2023/05/13 09:42:16;;;;;;;3.92;3.53;;;14.10;77.80;;;16.91;49.01;97759.91;4966608;28;20316;-49
2023/05/13 09:44:45;;;;;;;4.57;3.47;;;14.10;77.10;;;16.96;48.98;97762.00;4972095;28;20051;-45
2023/05/13 09:47:14;;;;;;;5.22;3.58;;;14.20;77.50;;;17.00;48.90;97764.09;4973373;28;20046;-45
2023/05/13 09:49:44;;;;;;;5.65;3.80;;;14.30;76.90;;;16.98;48.63;97771.50;4972934;28;20043;-49
2023/05/13 09:52:15;;;;;;;6.47;4.00;;;14.40;76.10;;;17.00;48.65;97777.56;4972409;28;20042;-45
2023/05/13 09:54:43;;;;;;;8.98;3.80;;;14.50;76.00;;;17.10;48.84;97766.41;4973150;28;20442;-44
2023/05/13 09:57:12;;;;;;;5.10;3.10;;;14.50;76.00;;;17.26;48.66;97771.44;4973217;28;20074;-48
2023/05/13 09:59:40;;;;;;;4.65;4.05;;;14.60;74.90;;;17.29;48.07;97776.44;4972350;28;20077;-48
2023/05/13 10:02:09;;;;;;;4.63;3.53;;;14.70;75.20;;;17.30;48.38;97778.09;4971600;28;20046;-48
2023/05/13 10:04:37;;;;;;;5.35;3.58;;;14.80;74.80;;;17.38;48.16;97782.47;4973093;28;20058;-47
2023/05/13 10:07:05;;;;;;;6.68;3.30;;;14.80;74.70;;;17.48;48.06;97776.69;4965528;28;20050;-46
2023/05/13 10:09:36;;;;;;;3.83;3.30;;;14.90;74.10;;;17.52;47.76;97776.09;4955910;28;20054;-44
2023/05/13 10:12:07;;;;;;;3.88;3.42;;;14.90;74.10;;;17.62;47.62;97777.56;4973174;28;20039;-48
2023/05/13 10:14:38;;;;;;;4.60;3.65;;;14.90;73.80;;;17.74;47.59;97786.72;4973002;28;20039;-45
2023/05/13 10:17:08;;;;;;;5.30;4.30;;;15.00;73.50;;;17.85;47.48;97785.31;4968258;28;20068;-44
2023/05/13 10:19:36;;;;;;;7.10;3.67;;;15.10;74.10;;;17.96;47.39;97778.50;4967863;28;20058;-45
2023/05/13 10:22:04;;;;;;;4.25;3.50;;;15.20;74.20;;;18.05;47.40;97782.69;4963880;28;20039;-46
2023/05/13 10:24:33;;;;;;;4.70;3.33;;;15.40;73.90;;;18.08;47.15;97779.56;4955722;28;20055;-47
2023/05/13 10:27:05;;;;;;;4.50;3.38;;;15.40;73.00;;;18.15;46.97;97775.00;4971277;28;20042;-46
2023/05/13 10:29:36;;;;;;;5.80;3.55;;;15.40;72.30;;;18.25;46.76;97783.50;4972574;28;20422;-45